createdAt,value
2022-08-17T00:00:42.771Z,63.70
2022-08-17T00:03:15.058Z,64.30
2022-08-17T00:05:46.730Z,64.70
2022-08-17T00:08:17.189Z,65.30
2022-08-17T00:10:48.086Z,66.60
2022-08-17T00:13:19.026Z,67.20
2022-08-17T00:15:47.841Z,67.80
2022-08-17T00:19:02.047Z,68.20
2022-08-17T00:21:10.434Z,68.60
2022-08-17T00:23:47.810Z,67.70
2022-08-17T00:26:34.920Z,67.60
2022-08-17T00:29:08.601Z,67.10
2022-08-17T00:31:38.047Z,67.30
2022-08-17T00:34:08.781Z,67.40
2022-08-17T00:36:38.970Z,67.50
2022-08-17T00:39:07.287Z,67.60
2022-08-17T00:41:36.205Z,68.00
2022-08-17T00:44:12.103Z,68.00
2022-08-17T00:46:43.181Z,67.80
2022-08-17T00:49:14.124Z,67.90
2022-08-17T00:51:47.971Z,67.50
2022-08-17T00:54:19.832Z,69.10
2022-08-17T00:56:53.331Z,68.00
2022-08-17T00:59:25.919Z,68.20
2022-08-17T01:01:55.030Z,68.40
2022-08-17T01:04:24.645Z,68.70
2022-08-17T01:06:56.181Z,68.70
2022-08-17T01:09:24.614Z,68.90
2022-08-17T01:11:53.644Z,68.40
2022-08-17T01:14:23.770Z,68.30
2022-08-17T01:16:54.254Z,67.80
2022-08-17T01:19:26.212Z,68.20
2022-08-17T01:22:02.251Z,67.90
2022-08-17T01:24:33.761Z,67.60
2022-08-17T01:27:02.671Z,67.60
2022-08-17T01:29:42.005Z,68.00
2022-08-17T01:32:11.150Z,67.60
2022-08-17T01:34:43.933Z,68.00
2022-08-17T01:37:21.237Z,68.10
2022-08-17T01:39:54.980Z,68.40
2022-08-17T01:42:27.778Z,69.60
2022-08-17T01:44:59.586Z,69.90
2022-08-17T01:47:28.317Z,70.40
2022-08-17T01:50:05.134Z,70.30
2022-08-17T01:52:34.587Z,70.30
2022-08-17T01:55:07.663Z,69.70
2022-08-17T01:57:36.506Z,70.20
2022-08-17T02:00:07.471Z,69.60
2022-08-17T02:02:40.202Z,69.40
2022-08-17T02:05:10.221Z,69.60
2022-08-17T02:08:00.050Z,69.10
2022-08-17T02:10:32.884Z,70.30
2022-08-17T02:13:04.780Z,69.50
2022-08-17T02:15:34.935Z,68.70
2022-08-17T02:18:03.747Z,69.20
2022-08-17T02:20:41.159Z,68.90
2022-08-17T02:23:13.031Z,68.80
2022-08-17T02:25:44.619Z,69.10
2022-08-17T02:28:13.021Z,69.20
2022-08-17T02:30:59.599Z,70.40
2022-08-17T02:33:43.053Z,70.90
2022-08-17T02:36:14.096Z,71.20
2022-08-17T02:38:43.199Z,71.50
2022-08-17T02:41:13.974Z,72.10
2022-08-17T02:43:42.420Z,71.70
2022-08-17T02:46:12.683Z,72.30
2022-08-17T02:48:41.516Z,72.30
2022-08-17T02:51:10.286Z,72.60
2022-08-17T02:53:38.951Z,72.20
2022-08-17T02:56:07.887Z,72.50
2022-08-17T02:58:37.927Z,72.50
2022-08-17T03:01:08.100Z,72.90
2022-08-17T03:03:37.702Z,72.90
2022-08-17T03:06:08.157Z,72.50
2022-08-17T03:08:37.478Z,73.20
2022-08-17T03:11:05.928Z,73.60
2022-08-17T03:13:35.078Z,76.00
2022-08-17T03:16:05.062Z,75.30
2022-08-17T03:18:33.923Z,75.40
2022-08-17T03:21:04.727Z,75.60
2022-08-17T03:23:34.040Z,75.90
2022-08-17T03:26:03.023Z,75.70
2022-08-17T03:28:31.729Z,76.00
2022-08-17T03:31:00.202Z,76.90
2022-08-17T03:33:30.893Z,77.40
2022-08-17T03:35:59.198Z,78.60
2022-08-17T03:38:28.250Z,77.80
2022-08-17T03:40:59.740Z,77.20
2022-08-17T03:43:30.661Z,75.60
2022-08-17T03:46:28.691Z,75.60
2022-08-17T03:49:24.756Z,75.90
2022-08-17T03:52:10.749Z,76.80
2022-08-17T03:54:57.448Z,77.70
2022-08-17T03:57:26.084Z,78.30
2022-08-17T03:59:55.180Z,78.90
2022-08-17T04:02:26.416Z,79.40
2022-08-17T04:04:57.277Z,78.60
2022-08-17T04:07:29.316Z,78.90
2022-08-17T04:09:59.687Z,78.40
2022-08-17T04:12:30.829Z,78.20
2022-08-17T04:15:00.722Z,77.50
2022-08-17T04:17:30.310Z,77.10
2022-08-17T04:20:00.776Z,76.70
2022-08-17T04:22:32.258Z,76.60
2022-08-17T04:25:08.505Z,76.70
2022-08-17T04:27:37.354Z,76.90
2022-08-17T04:30:08.530Z,77.80
2022-08-17T04:33:10.466Z,77.70
2022-08-17T04:35:43.223Z,76.90
2022-08-17T04:38:13.450Z,76.50
2022-08-17T04:41:00.408Z,76.00
2022-08-17T04:43:30.924Z,76.60
2022-08-17T04:46:01.499Z,77.30
2022-08-17T04:48:36.010Z,77.40
2022-08-17T04:51:10.717Z,76.90
2022-08-17T04:53:40.547Z,77.00
2022-08-17T04:56:16.136Z,77.30
2022-08-17T04:58:47.839Z,77.30
2022-08-17T05:01:17.485Z,76.70
2022-08-17T05:03:53.874Z,76.50
2022-08-17T05:06:24.137Z,76.80
2022-08-17T05:08:52.861Z,76.50
2022-08-17T05:11:21.641Z,76.90
2022-08-17T05:13:51.387Z,76.40
2022-08-17T05:16:20.863Z,76.70
2022-08-17T05:18:49.746Z,76.90
2022-08-17T05:21:19.093Z,76.60
2022-08-17T05:23:53.911Z,77.30
2022-08-17T05:26:26.153Z,78.40
2022-08-17T05:28:59.454Z,79.80
2022-08-17T05:31:30.336Z,81.70
2022-08-17T05:33:59.428Z,82.90
2022-08-17T05:36:42.949Z,83.70
2022-08-17T05:39:17.362Z,83.90
2022-08-17T05:41:48.644Z,84.00
2022-08-17T05:44:17.932Z,84.70
2022-08-17T05:46:51.204Z,85.20
2022-08-17T05:49:25.928Z,83.70
2022-08-17T05:52:11.540Z,83.20
2022-08-17T05:54:51.653Z,83.50
2022-08-17T05:57:39.935Z,82.10
2022-08-17T06:00:26.472Z,80.90
2022-08-17T06:03:15.642Z,80.20
2022-08-17T06:05:56.904Z,79.80
2022-08-17T06:08:34.634Z,80.00
2022-08-17T06:11:19.797Z,79.20
2022-08-17T06:14:04.898Z,80.00
2022-08-17T06:16:37.299Z,80.40
2022-08-17T06:19:12.577Z,80.00
2022-08-17T06:21:44.751Z,79.20
2022-08-17T06:24:25.532Z,79.10
2022-08-17T06:26:58.478Z,78.40
2022-08-17T06:29:37.176Z,78.20
2022-08-17T06:32:08.928Z,77.70
2022-08-17T06:34:39.154Z,77.50
2022-08-17T06:37:32.724Z,76.80
2022-08-17T06:40:15.602Z,76.40
2022-08-17T06:42:55.018Z,75.70
2022-08-17T06:45:39.945Z,75.60
2022-08-17T06:48:24.800Z,75.00
2022-08-17T06:50:59.877Z,75.20
2022-08-17T06:53:37.108Z,74.80
2022-08-17T06:56:10.030Z,74.80
2022-08-17T06:58:43.577Z,75.50
2022-08-17T07:01:16.342Z,74.80
2022-08-17T07:03:54.857Z,74.40
2022-08-17T07:06:27.876Z,74.20
2022-08-17T07:09:02.441Z,74.30
2022-08-17T07:11:37.092Z,73.00
2022-08-17T07:14:22.610Z,72.10
2022-08-17T07:16:54.600Z,72.80
2022-08-17T07:19:26.857Z,73.10
2022-08-17T07:22:01.870Z,72.50
2022-08-17T07:24:39.569Z,72.10
2022-08-17T07:27:12.206Z,72.70
2022-08-17T07:29:49.887Z,72.70
2022-08-17T07:32:22.851Z,71.90
2022-08-17T07:35:37.882Z,72.30
2022-08-17T07:38:24.206Z,72.70
2022-08-17T07:41:03.876Z,72.30
2022-08-17T07:43:35.199Z,70.70
2022-08-17T07:46:36.304Z,70.70
2022-08-17T07:49:23.433Z,70.70
2022-08-17T07:52:00.450Z,71.50
2022-08-17T07:54:48.321Z,71.90
2022-08-17T07:57:35.547Z,71.30
2022-08-17T08:00:31.643Z,71.80
2022-08-17T08:03:22.175Z,72.00
2022-08-17T08:05:56.696Z,71.80
2022-08-17T08:08:38.711Z,71.00
2022-08-17T08:11:10.948Z,71.20
2022-08-17T08:13:42.878Z,70.30
2022-08-17T08:16:24.790Z,69.70
2022-08-17T08:18:58.108Z,70.00
2022-08-17T08:21:47.737Z,69.30
2022-08-17T08:24:30.880Z,68.60
2022-08-17T08:27:08.142Z,68.80
2022-08-17T08:29:46.396Z,68.80
2022-08-17T08:32:23.680Z,68.40
2022-08-17T08:35:04.831Z,67.40
2022-08-17T08:37:49.371Z,67.30
2022-08-17T08:40:55.857Z,67.60
2022-08-17T08:43:32.519Z,66.80
2022-08-17T08:46:06.258Z,65.10
2022-08-17T08:49:12.282Z,64.90
2022-08-17T08:51:52.922Z,65.00
2022-08-17T08:54:28.360Z,64.70
2022-08-17T09:00:06.951Z,62.70
2022-08-17T09:02:58.479Z,63.00
2022-08-17T09:05:35.611Z,62.90
2022-08-17T09:08:15.358Z,63.60
2022-08-17T09:10:54.460Z,62.00
2022-08-17T09:13:29.835Z,61.30
2022-08-17T09:16:03.882Z,61.30
2022-08-17T09:19:00.092Z,61.20
2022-08-17T09:21:29.729Z,59.70
2022-08-17T09:24:14.470Z,58.60
2022-08-17T09:26:55.664Z,58.70
2022-08-17T09:29:27.426Z,59.70
2022-08-17T09:31:58.483Z,59.80
2022-08-17T09:34:35.034Z,59.90
2022-08-17T09:37:20.927Z,59.90
2022-08-17T09:39:56.494Z,58.00
2022-08-17T09:42:29.753Z,58.90
2022-08-17T09:45:08.354Z,57.40
2022-08-17T09:47:45.376Z,56.80
2022-08-17T09:51:04.074Z,56.30
2022-08-17T09:53:10.883Z,56.00
2022-08-17T09:55:58.186Z,55.20
2022-08-17T09:58:34.716Z,54.70
2022-08-17T10:01:09.410Z,55.20
2022-08-17T10:03:58.823Z,55.10
2022-08-17T10:06:33.682Z,55.90
2022-08-17T10:09:09.877Z,55.10
2022-08-17T10:12:02.076Z,54.10
2022-08-17T10:14:43.789Z,52.90
2022-08-17T10:17:21.776Z,53.10
2022-08-17T10:19:58.620Z,53.60
2022-08-17T10:22:53.041Z,53.60
2022-08-17T10:25:54.153Z,54.20
2022-08-17T10:28:30.508Z,53.30
2022-08-17T10:31:33.577Z,52.80
2022-08-17T10:34:08.558Z,52.20
2022-08-17T10:36:48.029Z,52.00
2022-08-17T10:39:26.982Z,51.90
2022-08-17T10:42:00.560Z,51.50
2022-08-17T10:44:50.968Z,52.20
2022-08-17T10:47:20.649Z,51.80
2022-08-17T10:49:54.338Z,51.60
2022-08-17T10:52:50.047Z,49.70
2022-08-17T10:55:21.459Z,50.10
2022-08-17T10:57:52.910Z,49.80
2022-08-17T11:00:59.293Z,50.40
2022-08-17T11:03:27.969Z,49.50
2022-08-17T11:06:13.036Z,49.80
2022-08-17T11:09:10.265Z,49.40
2022-08-17T11:12:01.606Z,48.00
2022-08-17T11:14:48.259Z,46.90
2022-08-17T11:17:32.954Z,46.90
2022-08-17T11:20:38.009Z,47.70
2022-08-17T11:23:30.416Z,45.70
2022-08-17T11:26:04.018Z,46.20
2022-08-17T11:28:35.927Z,46.60
2022-08-17T11:31:10.545Z,47.50
2022-08-17T11:34:05.729Z,46.30
2022-08-17T11:36:57.159Z,46.00
2022-08-17T11:39:49.973Z,47.30
2022-08-17T11:42:31.385Z,46.70
2022-08-17T11:45:04.309Z,46.70
2022-08-17T11:48:26.127Z,46.40
2022-08-17T11:51:12.914Z,44.70
2022-08-17T11:54:32.160Z,46.50
2022-08-17T11:57:22.673Z,45.30
2022-08-17T12:00:00.359Z,45.80
2022-08-17T12:02:47.792Z,45.70
2022-08-17T12:05:33.192Z,45.90
2022-08-17T12:08:17.928Z,46.00
2022-08-17T12:11:03.185Z,45.40
2022-08-17T12:13:38.641Z,45.50
2022-08-17T12:16:09.952Z,45.90
2022-08-17T12:18:39.815Z,45.60
2022-08-17T12:21:24.378Z,45.90
2022-08-17T12:23:58.797Z,45.50
2022-08-17T12:26:31.184Z,44.80
2022-08-17T12:29:02.883Z,44.80
2022-08-17T12:31:36.792Z,44.40
2022-08-17T12:34:06.529Z,44.60
2022-08-17T12:36:36.295Z,44.00
2022-08-17T12:39:14.214Z,43.00
2022-08-17T12:41:47.194Z,44.40
2022-08-17T12:44:18.428Z,44.40
2022-08-17T12:46:51.445Z,44.30
2022-08-17T12:49:29.581Z,43.70
2022-08-17T12:52:12.240Z,43.60
2022-08-17T12:54:49.676Z,42.80
2022-08-17T12:57:21.306Z,42.50
2022-08-17T12:59:55.585Z,42.40
2022-08-17T13:02:39.771Z,43.40
2022-08-17T13:05:19.094Z,42.90
2022-08-17T13:07:47.955Z,42.00
2022-08-17T13:10:28.646Z,41.80
2022-08-17T13:13:05.205Z,41.20
2022-08-17T13:15:38.778Z,41.40
2022-08-17T13:18:39.849Z,41.00
2022-08-17T13:21:18.078Z,41.30
2022-08-17T13:23:57.240Z,41.60
2022-08-17T13:26:32.493Z,41.10
2022-08-17T13:29:02.355Z,41.90
2022-08-17T13:31:46.590Z,41.50
2022-08-17T13:34:38.668Z,41.20
2022-08-17T13:37:30.814Z,41.10
2022-08-17T13:40:03.021Z,40.80
2022-08-17T13:42:51.629Z,41.00
2022-08-17T13:45:50.433Z,39.90
2022-08-17T13:48:26.952Z,41.60
2022-08-17T13:51:31.080Z,41.50
2022-08-17T13:54:16.674Z,41.00
2022-08-17T13:56:55.578Z,40.70
2022-08-17T13:59:48.211Z,41.20
2022-08-17T14:02:22.826Z,40.60
2022-08-17T14:04:55.577Z,39.70
2022-08-17T14:07:31.985Z,39.50
2022-08-17T14:10:02.390Z,39.50
2022-08-17T14:12:34.814Z,39.70
2022-08-17T14:15:05.169Z,39.40
2022-08-17T14:17:38.622Z,39.30
2022-08-17T14:20:10.529Z,38.90
2022-08-17T14:22:41.612Z,39.10
2022-08-17T14:25:12.161Z,38.40
2022-08-17T14:27:52.684Z,38.50
2022-08-17T14:30:25.328Z,38.00
2022-08-17T14:32:54.668Z,38.90
2022-08-17T14:35:25.014Z,38.60
2022-08-17T14:37:54.088Z,38.80
2022-08-17T14:40:24.700Z,38.50
2022-08-17T14:42:55.932Z,38.00
2022-08-17T14:45:32.101Z,38.40
2022-08-17T14:48:04.437Z,38.60
2022-08-17T14:50:35.417Z,38.30
2022-08-17T14:53:06.750Z,37.40
2022-08-17T14:55:36.859Z,37.80
2022-08-17T14:58:05.498Z,37.90
2022-08-17T15:00:35.951Z,37.00
2022-08-17T15:03:04.837Z,37.60
2022-08-17T15:05:36.525Z,38.00
2022-08-17T15:08:06.132Z,37.90
2022-08-17T15:10:35.123Z,38.60
2022-08-17T15:13:03.719Z,38.70
2022-08-17T15:15:34.657Z,39.10
2022-08-17T15:18:03.459Z,38.90
2022-08-17T15:20:33.439Z,39.10
2022-08-17T15:23:02.036Z,39.40
2022-08-17T15:25:32.739Z,38.90
2022-08-17T15:28:02.187Z,39.20
2022-08-17T15:30:31.704Z,39.50
2022-08-17T15:33:02.738Z,39.40
2022-08-17T15:35:33.425Z,39.00
2022-08-17T15:38:11.171Z,39.40
2022-08-17T15:40:44.478Z,39.10
2022-08-17T15:43:15.948Z,38.60
2022-08-17T15:45:44.726Z,38.80
2022-08-17T15:48:41.267Z,38.90
2022-08-17T15:51:12.623Z,38.90
2022-08-17T15:53:42.721Z,38.50
2022-08-17T15:56:11.892Z,38.80
2022-08-17T15:58:42.180Z,39.00
2022-08-17T16:01:16.777Z,39.10
2022-08-17T16:04:04.376Z,39.20
2022-08-17T16:06:35.881Z,38.70
2022-08-17T16:09:04.536Z,39.50
2022-08-17T16:11:32.912Z,39.30
2022-08-17T16:14:01.413Z,39.10
2022-08-17T16:16:31.551Z,39.10
2022-08-17T16:19:04.321Z,39.30
2022-08-17T16:21:43.138Z,40.00
2022-08-17T16:24:13.599Z,40.60
2022-08-17T16:26:43.764Z,40.80
2022-08-17T16:29:12.379Z,41.10
2022-08-17T16:31:42.399Z,41.30
2022-08-17T16:34:16.879Z,41.10
2022-08-17T16:36:55.127Z,41.10
2022-08-17T16:39:29.424Z,41.90
2022-08-17T16:42:01.292Z,40.70
2022-08-17T16:44:32.088Z,40.90
2022-08-17T16:47:01.219Z,41.10
2022-08-17T16:49:36.941Z,41.50
2022-08-17T16:52:11.362Z,41.30
2022-08-17T16:54:48.728Z,41.30
2022-08-17T16:57:21.186Z,41.60
2022-08-17T16:59:51.777Z,41.90
2022-08-17T17:02:29.580Z,41.90
2022-08-17T17:05:05.397Z,41.80
2022-08-17T17:07:56.815Z,41.90
2022-08-17T17:10:33.569Z,42.00
2022-08-17T17:13:04.497Z,42.30
2022-08-17T17:15:52.381Z,42.50
2022-08-17T17:18:23.659Z,42.70
2022-08-17T17:20:58.121Z,42.90
2022-08-17T17:23:36.451Z,43.10
2022-08-17T17:26:28.181Z,43.50
2022-08-17T17:29:11.491Z,43.50
2022-08-17T17:31:48.087Z,43.80
2022-08-17T17:34:18.429Z,44.30
2022-08-17T17:36:53.312Z,44.20
2022-08-17T17:39:36.307Z,44.40
2022-08-17T17:42:10.031Z,44.60
2022-08-17T17:44:44.219Z,44.80
2022-08-17T17:47:13.972Z,44.90
2022-08-17T17:49:45.296Z,44.90
2022-08-17T17:52:23.910Z,45.20
2022-08-17T17:55:01.853Z,45.00
2022-08-17T17:57:47.083Z,45.30
2022-08-17T18:00:19.887Z,45.40
2022-08-17T18:03:03.353Z,45.80
2022-08-17T18:06:01.193Z,46.70
2022-08-17T18:08:49.860Z,47.50
2022-08-17T18:11:35.229Z,46.60
2022-08-17T18:14:25.291Z,46.80
2022-08-17T18:16:59.117Z,47.60
2022-08-17T18:19:32.068Z,47.80
2022-08-17T18:22:14.123Z,47.10
2022-08-17T18:24:49.244Z,47.20
2022-08-17T18:27:25.632Z,47.50
2022-08-17T18:29:59.194Z,50.20
2022-08-17T18:32:34.741Z,53.60
2022-08-17T18:35:35.223Z,54.40
2022-08-17T18:38:24.186Z,55.60
2022-08-17T18:41:05.468Z,55.70
2022-08-17T18:43:52.823Z,55.80
2022-08-17T18:46:31.217Z,56.60
2022-08-17T18:49:03.781Z,56.40
2022-08-17T18:51:42.397Z,57.20
2022-08-17T18:54:20.905Z,56.70
2022-08-17T18:56:56.357Z,57.70
2022-08-17T18:59:33.501Z,57.80
2022-08-17T19:05:26.275Z,57.80
2022-08-17T19:07:55.532Z,55.30
2022-08-17T19:10:28.264Z,53.40
2022-08-17T19:13:12.445Z,52.00
2022-08-17T19:16:13.944Z,53.00
2022-08-17T19:18:39.499Z,53.50
2022-08-17T19:21:12.925Z,54.50
2022-08-17T19:23:53.706Z,54.40
2022-08-17T19:26:54.772Z,55.90
2022-08-17T19:29:22.992Z,56.40
2022-08-17T19:31:52.800Z,55.50
2022-08-17T19:34:33.215Z,56.20
2022-08-17T19:37:08.948Z,54.70
2022-08-17T19:39:46.223Z,55.00
2022-08-17T19:42:25.729Z,55.70
2022-08-17T19:45:04.168Z,55.00
2022-08-17T19:48:03.157Z,56.60
2022-08-17T19:50:39.164Z,56.00
2022-08-17T19:53:17.565Z,56.10
2022-08-17T19:55:54.990Z,54.40
2022-08-17T19:58:37.297Z,53.30
2022-08-17T20:01:10.992Z,53.10
2022-08-17T20:03:51.971Z,53.60
2022-08-17T20:06:22.626Z,55.00
2022-08-17T20:08:58.685Z,53.60
2022-08-17T20:11:33.918Z,54.10
2022-08-17T20:14:06.529Z,53.40
2022-08-17T20:16:36.883Z,53.60
2022-08-17T20:19:07.724Z,53.40
2022-08-17T20:21:40.462Z,53.10
2022-08-17T20:24:20.834Z,54.60
2022-08-17T20:26:58.012Z,55.10
2022-08-17T20:29:37.104Z,54.70
2022-08-17T20:32:25.136Z,54.60
2022-08-17T20:35:07.431Z,54.20
2022-08-17T20:37:38.421Z,55.70
2022-08-17T20:40:21.263Z,54.70
2022-08-17T20:42:50.156Z,54.40
2022-08-17T20:45:50.506Z,54.80
2022-08-17T20:48:37.376Z,54.80
2022-08-17T20:51:19.864Z,55.20
2022-08-17T20:54:26.974Z,54.80
2022-08-17T20:57:00.390Z,55.60
2022-08-17T21:00:01.624Z,55.70
2022-08-17T21:02:32.918Z,56.50
2022-08-17T21:05:30.077Z,56.10
2022-08-17T21:08:01.958Z,54.80
2022-08-17T21:10:38.602Z,54.30
2022-08-17T21:13:48.623Z,54.10
2022-08-17T21:16:36.230Z,54.10
2022-08-17T21:19:31.222Z,54.10
2022-08-17T21:22:27.599Z,54.70
2022-08-17T21:25:04.473Z,54.40
2022-08-17T21:27:43.585Z,54.10
2022-08-17T21:30:24.720Z,53.90
2022-08-17T21:33:20.432Z,54.10
2022-08-17T21:35:52.584Z,54.20
2022-08-17T21:38:34.372Z,54.30
2022-08-17T21:41:02.787Z,54.40
2022-08-17T21:43:34.136Z,54.60
2022-08-17T21:46:06.298Z,54.50
2022-08-17T21:48:43.449Z,54.40
2022-08-17T21:51:17.573Z,55.00
2022-08-17T21:53:51.331Z,55.00
2022-08-17T21:56:26.869Z,55.00
2022-08-17T21:58:59.250Z,54.90
2022-08-17T22:01:30.426Z,55.20
2022-08-17T22:04:03.226Z,55.30
2022-08-17T22:06:37.235Z,56.20
2022-08-17T22:09:20.791Z,56.70
2022-08-17T22:11:52.838Z,58.10
2022-08-17T22:14:22.490Z,59.60
2022-08-17T22:17:10.610Z,61.50
2022-08-17T22:19:39.641Z,62.70
2022-08-17T22:22:11.187Z,65.10
2022-08-17T22:24:40.986Z,68.20
2022-08-17T22:27:13.124Z,70.70
2022-08-17T22:29:45.273Z,72.30
2022-08-17T22:32:37.479Z,75.30
2022-08-17T22:35:38.703Z,77.00
2022-08-17T22:38:33.040Z,78.90
2022-08-17T22:41:41.623Z,80.70
2022-08-17T22:44:23.459Z,82.20
2022-08-17T22:46:57.378Z,84.00
2022-08-17T22:49:29.875Z,85.10
2022-08-17T22:52:07.621Z,87.20
2022-08-17T22:54:54.251Z,88.90
2022-08-17T22:57:57.295Z,90.80
2022-08-17T23:00:41.433Z,92.50
2022-08-17T23:03:17.605Z,94.30
2022-08-17T23:05:49.916Z,96.20
2022-08-17T23:08:21.342Z,98.10
2022-08-17T23:10:50.269Z,99.60
2022-08-17T23:13:21.433Z,99.90
2022-08-17T23:15:52.130Z,99.90
2022-08-17T23:18:20.731Z,99.90
2022-08-17T23:20:49.418Z,99.90
2022-08-17T23:23:23.101Z,99.90
2022-08-17T23:25:52.689Z,99.90
2022-08-17T23:28:22.486Z,99.90
2022-08-17T23:30:51.288Z,99.90
2022-08-17T23:33:22.847Z,99.90
2022-08-17T23:35:51.286Z,99.90
2022-08-17T23:38:20.141Z,99.90
2022-08-17T23:40:48.584Z,99.90
2022-08-17T23:43:25.393Z,99.90
2022-08-17T23:45:59.875Z,99.90
2022-08-17T23:48:36.271Z,99.90
2022-08-17T23:51:09.485Z,99.90
2022-08-17T23:53:42.117Z,99.90
2022-08-17T23:56:11.624Z,99.90
2022-08-17T23:58:42.998Z,99.90
